Lybster, United Kingdom
Current Conditions -  °F | °C
As of 8:50 AM on Thursday 23 Oct 2014 (Local Time) from EGPC Reporting Station
Scattered Clouds Scattered Clouds  
Wind Chill: 52°   Ceiling: Unl
Heat Index: 52°   Visibility: 6mi
Dew Point: 48°   Wind: 6mph
Humidity: 88%   Direction: 190°S
Pressure: 29.65"   Gusts: NA
Location:  58.3°N, 3.28°W
Report Text: EGPC 230750Z 19005KT 9999 SCT033 11/09 Q1004
Loading
Personal Weather Stations






























Interactive Weather Map
Tropical Storm Tracking
New forecast layout! Learn more

10-Day Weather Forecast

Advertisements
Track Severe Weather on mobile